Time;durP1;ratioP1;P1;durP2;ratioP2;P2;SDS_P1;SDS_P2;PMS_P1;PMS_P2;Temp;Humidity;BMP_temperature;BMP_pressure;BME280_temperature;BME280_humidity;BME280_pressure;Samples;Min_cycle;Max_cycle;Signal;HPM_P1;HPM_P2
2024/02/26 00:02:45;;;;;;;2.47;0.93;;;;;;;10.96;54.85;99512.53;5114118;28;20382;-80
2024/02/26 00:05:50;;;;;;;3.72;1.33;;;;;;;11.03;53.83;99508.25;5114024;28;20042;-80
2024/02/26 00:08:54;;;;;;;2.30;0.93;;;;;;;11.11;53.55;99500.22;5113865;28;20054;-81
2024/02/26 00:11:59;;;;;;;3.38;1.40;;;;;;;11.12;53.29;99501.06;5113925;28;20051;-79
2024/02/26 00:15:04;;;;;;;4.15;1.40;;;;;;;11.07;53.68;99496.19;5101312;28;20486;-79
2024/02/26 00:18:09;;;;;;;2.80;1.20;;;;;;;11.00;54.44;99488.91;5113870;28;20481;-79
2024/02/26 00:21:14;;;;;;;4.53;1.15;;;;;;;10.94;54.70;99489.53;5113868;28;20052;-82
2024/02/26 00:24:18;;;;;;;2.13;1.00;;;;;;;11.02;54.68;99489.59;5113584;28;20046;-82
2024/02/26 00:27:23;;;;;;;5.07;2.08;;;;;;;11.11;54.08;99473.38;5113527;28;20421;-81
2024/02/26 00:30:27;;;;;;;3.45;1.35;;;;;;;11.13;54.58;99479.41;5113777;28;20158;-81
2024/02/26 00:33:32;;;;;;;5.55;1.30;;;;;;;10.79;55.97;99483.91;5113579;28;20050;-82
2024/02/26 00:36:36;;;;;;;2.75;0.85;;;;;;;10.75;55.99;99479.84;5113904;28;20066;-78
2024/02/26 00:39:41;;;;;;;2.45;1.08;;;;;;;11.01;55.43;99475.31;5113595;28;20058;-81
2024/02/26 00:42:46;;;;;;;4.88;1.30;;;;;;;10.92;55.90;99476.28;5114800;28;20050;-82
2024/02/26 00:45:51;;;;;;;2.33;0.80;;;;;;;10.74;56.24;99477.34;5117330;28;20051;-81
2024/02/26 00:48:56;;;;;;;2.08;0.80;;;;;;;10.85;55.84;99469.84;5117220;28;20066;-82
2024/02/26 00:52:01;;;;;;;1.92;0.80;;;;;;;11.06;55.70;99467.63;5117405;28;20059;-82
2024/02/26 00:55:06;;;;;;;4.90;1.23;;;;;;;11.17;55.48;99468.34;5104933;28;20048;-80
2024/02/26 00:58:11;;;;;;;2.88;0.93;;;;;;;11.10;55.37;99466.31;5117195;28;20055;-81
2024/02/26 01:01:15;;;;;;;3.45;0.95;;;;;;;11.25;55.35;99463.03;5117217;28;20046;-82
2024/02/26 01:04:19;;;;;;;3.70;1.13;;;;;;;11.34;54.67;99456.69;5117215;28;20489;-81
2024/02/26 01:07:24;;;;;;;3.13;0.88;;;;;;;11.35;54.48;99447.63;5117221;28;20133;-80
2024/02/26 01:10:29;;;;;;;2.58;1.10;;;;;;;11.17;54.96;99436.97;5117104;28;20513;-81
2024/02/26 01:13:33;;;;;;;5.20;1.00;;;;;;;11.19;55.25;99439.50;5117044;28;20054;-80
2024/02/26 01:16:38;;;;;;;3.13;1.13;;;;;;;11.12;55.96;99428.56;5116989;28;20054;-82
2024/02/26 01:19:43;;;;;;;2.55;0.85;;;;;;;11.14;55.96;99434.59;5116980;28;20054;-82
2024/02/26 01:22:48;;;;;;;2.28;0.88;;;;;;;11.18;56.89;99432.44;5116619;28;20161;-81
2024/02/26 01:25:53;;;;;;;2.65;1.10;;;;;;;11.18;57.02;99427.94;5117132;28;20058;-78
2024/02/26 01:28:58;;;;;;;2.10;0.88;;;;;;;11.19;57.77;99420.69;5116805;28;20054;-78
2024/02/26 01:32:04;;;;;;;3.10;1.00;;;;;;;11.19;57.56;99415.31;5103983;28;20055;-79
2024/02/26 01:35:11;;;;;;;2.53;0.90;;;;;;;11.21;57.52;99414.16;5116698;28;20418;-79
2024/02/26 01:38:16;;;;;;;2.72;1.05;;;;;;;11.18;57.77;99410.97;5116520;28;20059;-79
2024/02/26 01:41:21;;;;;;;3.15;1.38;;;;;;;11.20;58.17;99411.63;5116445;28;20050;-79
2024/02/26 01:44:26;;;;;;;2.60;0.95;;;;;;;11.17;58.84;99411.94;5116141;28;20054;-80
2024/02/26 01:47:31;;;;;;;3.53;1.52;;;;;;;11.11;59.25;99406.22;5116288;28;20051;-81
2024/02/26 01:50:37;;;;;;;2.55;1.05;;;;;;;10.96;59.88;99402.44;5115744;28;20104;-81
2024/02/26 01:53:43;;;;;;;2.95;0.80;;;;;;;11.04;60.29;99409.72;5103455;28;20398;-82
2024/02/26 01:56:49;;;;;;;3.05;0.93;;;;;;;11.08;59.86;99413.78;5116264;28;20051;-81
2024/02/26 01:59:54;;;;;;;2.13;0.95;;;;;;;11.01;60.69;99397.44;5116143;28;20055;-81
2024/02/26 02:02:59;;;;;;;1.50;0.68;;;;;;;11.04;61.10;99398.97;5116266;28;20063;-81
2024/02/26 02:06:05;;;;;;;2.75;0.90;;;;;;;11.04;60.60;99407.88;5116421;28;20047;-81
2024/02/26 02:09:09;;;;;;;2.38;1.00;;;;;;;11.04;60.91;99398.97;5103206;28;20584;-81
2024/02/26 02:12:14;;;;;;;3.63;1.08;;;;;;;11.10;60.84;99393.81;5115955;28;20387;-80
2024/02/26 02:15:20;;;;;;;4.32;1.13;;;;;;;11.07;61.70;99396.81;5116021;28;20054;-81
2024/02/26 02:18:24;;;;;;;2.70;1.27;;;;;;;11.06;61.07;99386.22;5115836;28;20050;-79
2024/02/26 02:21:29;;;;;;;3.22;1.25;;;;;;;11.05;61.20;99388.09;5115779;28;20043;-81
2024/02/26 02:24:33;;;;;;;3.22;1.58;;;;;;;11.10;61.18;99379.53;5115829;28;20046;-80
2024/02/26 02:27:38;;;;;;;4.85;1.58;;;;;;;11.00;61.86;99378.81;5115865;28;20054;-80
2024/02/26 02:30:43;;;;;;;3.58;1.25;;;;;;;10.85;59.48;99378.59;5115707;28;20492;-80
2024/02/26 02:33:47;;;;;;;3.47;1.25;;;;;;;10.73;59.17;99379.88;5102993;28;20050;-78
2024/02/26 02:36:52;;;;;;;3.05;1.30;;;;;;;10.71;59.01;99381.88;5115462;28;20378;-80
2024/02/26 02:39:57;;;;;;;3.33;1.13;;;;;;;10.84;59.46;99382.25;5102881;28;20051;-80
2024/02/26 02:43:02;;;;;;;3.50;1.17;;;;;;;10.89;60.08;99385.31;5115105;28;20051;-79
2024/02/26 02:46:07;;;;;;;3.40;1.65;;;;;;;10.77;60.31;99381.22;5115052;28;20058;-80
2024/02/26 02:49:14;;;;;;;3.20;1.35;;;;;;;10.86;58.90;99380.25;5091283;28;20054;-80
2024/02/26 02:52:19;;;;;;;4.88;1.35;;;;;;;10.71;59.16;99381.88;5114896;28;20059;-80
2024/02/26 02:55:24;;;;;;;6.28;1.23;;;;;;;10.78;59.62;99388.28;5102918;28;20046;-80
2024/02/26 02:58:28;;;;;;;3.83;1.15;;;;;;;10.86;59.92;99385.63;5115304;28;20054;-80
2024/02/26 03:01:33;;;;;;;2.63;1.20;;;;;;;10.91;60.83;99375.25;5114739;28;20050;-82
2024/02/26 03:04:37;;;;;;;4.45;1.67;;;;;;;10.89;62.36;99368.34;5114815;28;20398;-81
2024/02/26 03:07:42;;;;;;;2.50;1.30;;;;;;;10.96;62.77;99367.53;5115090;28;20050;-81
2024/02/26 03:10:47;;;;;;;4.13;1.10;;;;;;;10.89;63.92;99363.81;5115298;28;20058;-81
2024/02/26 03:13:51;;;;;;;3.20;1.25;;;;;;;10.94;64.16;99364.19;5114947;28;20047;-81
2024/02/26 03:16:57;;;;;;;2.63;1.20;;;;;;;10.89;64.39;99357.59;5114918;28;20055;-80
2024/02/26 03:20:04;;;;;;;4.32;1.70;;;;;;;10.87;64.35;99339.00;5114852;28;20054;-80
2024/02/26 03:23:11;;;;;;;2.83;1.45;;;;;;;10.82;64.70;99348.53;5114981;28;20062;-80
2024/02/26 03:26:16;;;;;;;2.58;1.17;;;;;;;10.86;64.33;99336.47;5114982;28;20054;-80
2024/02/26 03:29:20;;;;;;;3.35;1.55;;;;;;;10.82;62.70;99344.00;5100857;28;20058;-81
2024/02/26 03:32:25;;;;;;;6.10;1.80;;;;;;;10.79;62.92;99344.31;5115163;28;20050;-78
2024/02/26 03:35:33;;;;;;;3.40;1.73;;;;;;;10.64;63.51;99340.53;5102498;28;20043;-81
2024/02/26 03:38:38;;;;;;;4.32;1.80;;;;;;;10.82;62.79;99335.94;5114424;28;20600;-79
2024/02/26 03:41:43;;;;;;;3.85;1.80;;;;;;;10.83;60.39;99332.28;5114512;28;20050;-80
2024/02/26 03:44:47;;;;;;;3.22;1.50;;;;;;;10.59;61.32;99326.75;5114513;28;20478;-80
2024/02/26 03:47:52;;;;;;;4.07;1.50;;;;;;;10.78;61.82;99323.88;5114811;28;20051;-80
2024/02/26 03:50:57;;;;;;;3.28;1.50;;;;;;;10.52;63.56;99339.13;5114515;28;20050;-80
2024/02/26 03:54:01;;;;;;;3.58;1.55;;;;;;;10.56;63.31;99337.84;5101672;28;20050;-81
2024/02/26 03:57:07;;;;;;;2.70;1.40;;;;;;;10.46;63.77;99347.84;5114220;28;20129;-80
2024/02/26 04:00:13;;;;;;;4.57;1.50;;;;;;;10.20;64.83;99338.94;5114153;28;20046;-80
2024/02/26 04:03:17;;;;;;;2.40;1.15;;;;;;;10.36;64.19;99345.28;5101790;28;20046;-80
2024/02/26 04:06:22;;;;;;;3.65;1.20;;;;;;;10.15;64.91;99344.78;5114052;28;20038;-81
2024/02/26 04:09:27;;;;;;;2.10;0.98;;;;;;;10.14;65.76;99350.31;5114102;28;20050;-78
2024/02/26 04:12:32;;;;;;;4.88;1.20;;;;;;;10.25;65.79;99353.56;5113941;28;20473;-79
2024/02/26 04:15:36;;;;;;;2.20;0.80;;;;;;;10.34;65.56;99357.16;5113995;28;20058;-80
2024/02/26 04:18:41;;;;;;;3.22;1.00;;;;;;;10.41;65.39;99353.69;5116781;28;20051;-79
2024/02/26 04:21:46;;;;;;;1.65;0.70;;;;;;;10.39;65.14;99354.84;5118160;28;20386;-80
2024/02/26 04:24:51;;;;;;;2.33;0.85;;;;;;;10.50;65.63;99359.06;5118165;28;20386;-80
2024/02/26 04:27:55;;;;;;;2.08;0.90;;;;;;;10.59;65.41;99356.28;5118148;28;20067;-81
2024/02/26 04:31:00;;;;;;;2.58;1.00;;;;;;;10.64;65.12;99353.97;5117965;28;20062;-80
2024/02/26 04:34:05;;;;;;;1.88;0.70;;;;;;;10.66;65.54;99351.13;5117926;28;20050;-80
2024/02/26 04:37:09;;;;;;;2.58;0.88;;;;;;;10.70;65.13;99347.97;5117748;28;20046;-81
2024/02/26 04:40:14;;;;;;;2.90;1.10;;;;;;;10.60;65.74;99341.88;5117618;28;20055;-82
2024/02/26 04:43:19;;;;;;;2.95;0.90;;;;;;;10.65;66.09;99336.03;5117723;28;20489;-81
2024/02/26 04:46:24;;;;;;;3.45;0.90;;;;;;;10.70;66.03;99336.38;5117713;28;20051;-81
2024/02/26 04:49:28;;;;;;;2.78;0.80;;;;;;;10.77;65.92;99338.28;5104631;28;20050;-81
2024/02/26 04:52:33;;;;;;;1.95;0.80;;;;;;;10.85;64.46;99329.41;5105058;28;20051;-81
2024/02/26 04:55:38;;;;;;;2.55;0.98;;;;;;;10.76;64.58;99323.19;5117504;28;20054;-82
2024/02/26 04:58:43;;;;;;;4.13;1.48;;;;;;;10.70;65.04;99326.50;5117546;28;20055;-81
2024/02/26 05:01:48;;;;;;;2.58;0.98;;;;;;;10.66;65.88;99324.31;5117511;28;20055;-82
2024/02/26 05:04:52;;;;;;;6.95;2.65;;;;;;;10.61;66.10;99329.31;5117493;28;20066;-81
2024/02/26 05:07:57;;;;;;;4.85;1.92;;;;;;;10.52;66.51;99333.78;5116501;28;20055;-81
2024/02/26 05:11:02;;;;;;;3.60;1.58;;;;;;;10.53;67.58;99330.09;5116612;28;20067;-81
2024/02/26 05:14:07;;;;;;;3.42;1.50;;;;;;;10.43;67.61;99332.91;5117080;28;20051;-80
2024/02/26 05:17:12;;;;;;;3.13;1.20;;;;;;;10.46;67.39;99339.78;5116250;28;20050;-80
2024/02/26 05:20:16;;;;;;;5.47;2.10;;;;;;;10.28;69.54;99355.94;5104492;28;20055;-80
2024/02/26 05:23:20;;;;;;;6.13;1.85;;;;;;;10.45;69.56;99359.56;5116896;28;20047;-79
2024/02/26 05:26:25;;;;;;;4.30;1.90;;;;;;;10.41;69.44;99353.69;5104452;28;20055;-80
2024/02/26 05:29:29;;;;;;;3.05;1.55;;;;;;;10.43;70.03;99373.16;5116247;28;20055;-80
2024/02/26 05:32:34;;;;;;;4.00;1.38;;;;;;;10.45;70.38;99365.78;5116843;28;20070;-80
2024/02/26 05:35:40;;;;;;;4.18;1.60;;;;;;;10.47;70.34;99379.03;5116684;28;20051;-80
2024/02/26 05:38:46;;;;;;;5.28;1.83;;;;;;;10.56;70.32;99378.09;5116498;28;20050;-80
2024/02/26 05:41:50;;;;;;;3.03;1.58;;;;;;;10.61;70.19;99366.88;5115047;28;20051;-79
2024/02/26 05:44:55;;;;;;;7.05;3.10;;;;;;;10.71;70.79;99365.78;5083483;28;20047;-80
2024/02/26 05:48:00;;;;;;;3.67;2.28;;;;;;;10.46;73.66;99366.63;5095765;28;20398;-79
2024/02/26 05:51:04;;;;;;;4.07;2.50;;;;;;;10.43;73.57;99364.25;5063468;28;20051;-81
2024/02/26 05:54:09;;;;;;;5.43;2.40;;;;;;;10.34;74.85;99368.69;5063107;28;20091;-80
2024/02/26 05:57:14;;;;;;;5.43;3.47;;;;;;;10.25;76.72;99374.16;5075135;28;20052;-80
2024/02/26 06:00:19;;;;;;;5.32;2.90;;;;;;;10.19;76.91;99372.97;5075639;28;20426;-80
2024/02/26 06:03:25;;;;;;;8.80;3.25;;;;;;;10.28;77.82;99374.72;5075472;28;20056;-79
2024/02/26 06:06:30;;;;;;;7.75;3.55;;;;;;;10.41;78.10;99366.25;5075241;28;20127;-80
2024/02/26 06:09:35;;;;;;;6.65;3.38;;;;;;;10.41;78.05;99368.94;5075266;28;20052;-79
2024/02/26 06:12:40;;;;;;;6.28;4.38;;;;;;;9.89;80.38;99383.22;5075377;28;20055;-80
2024/02/26 06:15:44;;;;;;;9.05;5.05;;;;;;;10.11;80.76;99382.75;5075348;28;20048;-80
2024/02/26 06:18:50;;;;;;;8.23;5.20;;;;;;;9.89;81.21;99389.44;5073635;28;20047;-80
2024/02/26 06:21:55;;;;;;;6.68;4.22;;;;;;;9.83;82.02;99379.31;5095458;28;20059;-80
2024/02/26 06:24:59;;;;;;;7.63;4.95;;;;;;;9.99;82.56;99381.31;5095260;28;20478;-80
2024/02/26 06:28:04;;;;;;;7.30;5.90;;;;;;;9.91;82.88;99375.88;5095222;28;20051;-80
2024/02/26 06:31:09;;;;;;;8.35;6.22;;;;;;;9.83;84.20;99372.13;5082477;28;20051;-81
2024/02/26 06:34:14;;;;;;;9.95;7.20;;;;;;;9.96;84.13;99376.25;5095148;28;20500;-80
2024/02/26 06:37:18;;;;;;;11.95;8.57;;;;;;;9.94;86.11;99375.56;5094571;28;20399;-81
2024/02/26 06:40:23;;;;;;;12.43;8.63;;;;;;;9.97;86.55;99364.53;5081558;28;20055;-80
2024/02/26 06:43:28;;;;;;;14.18;9.30;;;;;;;9.92;87.58;99378.41;5094454;28;20067;-80
2024/02/26 06:46:32;;;;;;;13.20;9.35;;;;;;;9.75;89.23;99381.94;5094906;28;20047;-81
2024/02/26 06:49:38;;;;;;;11.30;9.43;;;;;;;9.60;90.59;99362.84;5078985;27;20058;-79
2024/02/26 06:52:46;;;;;;;13.77;9.98;;;;;;;9.58;90.67;99362.16;5102004;28;20051;-80
2024/02/26 06:55:50;;;;;;;14.07;11.27;;;;;;;9.29;92.40;99379.44;5114841;28;20058;-71
2024/02/26 06:58:55;;;;;;;13.52;10.77;;;;;;;9.45;92.25;99380.47;5114257;28;20398;-71
2024/02/26 07:02:00;;;;;;;17.20;13.13;;;;;;;9.39;92.09;99374.84;5094054;27;20070;-70
2024/02/26 07:05:04;;;;;;;18.60;12.65;;;;;;;8.98;95.02;99371.72;5081946;28;20051;-69
2024/02/26 07:08:09;;;;;;;18.88;12.02;;;;;;;9.58;93.82;99351.44;5109566;28;20046;-70
2024/02/26 07:11:13;;;;;;;22.27;13.27;;;;;;;9.52;93.36;99352.09;5112224;27;20046;-69
2024/02/26 07:14:18;;;;;;;15.65;12.27;;;;;;;9.75;92.90;99357.84;5103356;28;20062;-69
2024/02/26 07:17:24;;;;;;;18.15;13.52;;;;;;;9.78;92.51;99365.53;5094034;28;20067;-70
2024/02/26 07:20:32;;;;;;;21.90;13.18;;;;;;;9.73;92.52;99357.13;5093061;28;20403;-72
2024/02/26 07:23:37;;;;;;;16.73;13.45;;;;;;;9.83;92.96;99365.91;5094175;28;20045;-71
2024/02/26 07:26:41;;;;;;;28.23;15.02;;;;;;;9.96;93.01;99373.56;5094001;28;20044;-71
2024/02/26 07:29:46;;;;;;;17.20;14.55;;;;;;;10.27;92.14;99356.09;5076827;28;20043;-79
2024/02/26 07:32:51;;;;;;;17.90;14.27;;;;;;;10.28;91.47;99360.44;5069645;28;20051;-79
2024/02/26 07:35:55;;;;;;;18.10;14.93;;;;;;;10.42;90.70;99367.91;5076995;28;20051;-81
2024/02/26 07:39:01;;;;;;;21.73;14.38;;;;;;;10.41;90.15;99367.09;5078132;28;20050;-80
2024/02/26 07:42:06;;;;;;;20.83;15.02;;;;;;;10.33;90.53;99372.41;5078353;28;20406;-79
2024/02/26 07:45:10;;;;;;;15.68;12.60;;;;;;;10.09;90.65;99368.66;5078279;28;20073;-81
2024/02/26 07:48:15;;;;;;;15.68;12.60;;;;;;;10.03;90.38;99354.03;5077810;28;20054;-80
2024/02/26 07:51:20;;;;;;;15.40;12.63;;;;;;;10.01;91.29;99365.91;5080496;28;20058;-78
2024/02/26 07:54:24;;;;;;;21.10;12.55;;;;;;;10.07;91.44;99378.72;5079508;28;20051;-79
2024/02/26 07:57:31;;;;;;;17.88;13.25;;;;;;;9.92;91.14;99378.41;5061599;28;20046;-78
2024/02/26 08:00:37;;;;;;;21.58;14.68;;;;;;;9.76;91.86;99383.63;5072871;28;20506;-78
2024/02/26 08:03:42;;;;;;;19.17;13.90;;;;;;;9.41;94.05;99388.94;5068006;28;20051;-80
2024/02/26 08:06:46;;;;;;;18.98;13.35;;;;;;;9.62;93.23;99385.00;5064938;28;20063;-81
2024/02/26 08:09:51;;;;;;;21.05;13.25;;;;;;;9.96;92.19;99373.56;5062299;28;20051;-79
2024/02/26 08:13:04;;;;;;;16.38;13.25;;;;;;;10.17;91.66;99366.91;5066983;28;20051;-81
2024/02/26 08:16:09;;;;;;;15.73;12.55;;;;;;;10.29;91.08;99360.31;5067550;28;20048;-80
2024/02/26 08:19:15;;;;;;;16.73;13.68;;;;;;;10.49;89.63;99362.78;5068330;28;20070;-78
2024/02/26 08:22:20;;;;;;;20.17;13.15;;;;;;;10.44;90.24;99364.06;5068993;28;20047;-78
2024/02/26 08:25:25;;;;;;;18.05;12.80;;;;;;;10.88;88.05;99356.78;5068729;28;20055;-77
2024/02/26 08:28:30;;;;;;;15.48;12.43;;;;;;;10.79;87.86;99357.72;5080256;28;20043;-80
2024/02/26 08:31:37;;;;;;;17.00;11.65;;;;;;;10.70;87.81;99361.38;5078353;28;20051;-81
2024/02/26 08:34:42;;;;;;;17.20;12.32;;;;;;;10.75;88.02;99356.38;5067595;28;20048;-81
2024/02/26 08:37:48;;;;;;;16.15;12.30;;;;;;;10.89;87.22;99358.47;5056418;28;20047;-84
2024/02/26 08:40:53;;;;;;;14.80;12.10;;;;;;;11.04;86.57;99359.53;5067440;28;20059;-82
2024/02/26 08:43:59;;;;;;;17.05;10.30;;;;;;;10.75;85.79;99358.22;5067353;28;20051;-81
2024/02/26 08:47:04;;;;;;;17.02;9.43;;;;;;;10.64;85.76;99353.97;5078547;28;20051;-80
2024/02/26 08:50:11;;;;;;;11.48;8.70;;;;;;;10.63;84.57;99352.31;5056357;28;20055;-83
2024/02/26 08:53:18;;;;;;;9.55;7.63;;;;;;;10.51;84.30;99347.38;5058004;28;20059;-81
2024/02/26 08:56:23;;;;;;;13.13;8.90;;;;;;;10.17;85.54;99345.44;5057317;28;20403;-81
2024/02/26 08:59:29;;;;;;;10.13;7.78;;;;;;;10.66;84.84;99345.78;5056736;28;20059;-83
2024/02/26 09:02:34;;;;;;;11.45;8.10;;;;;;;10.75;84.44;99344.81;5040921;28;20067;-83
2024/02/26 09:05:39;;;;;;;9.18;7.78;;;;;;;10.77;82.96;99342.78;5052907;28;20063;-81
2024/02/26 09:08:45;;;;;;;10.43;7.68;;;;;;;10.77;83.57;99324.84;5066261;28;20112;-83
2024/02/26 09:11:51;;;;;;;9.65;7.32;;;;;;;10.33;82.84;99323.28;5055963;28;20056;-84
2024/02/26 09:14:57;;;;;;;11.45;7.35;;;;;;;10.69;82.84;99324.00;5038887;28;20043;-84
2024/02/26 09:18:03;;;;;;;9.18;6.28;;;;;;;10.81;81.71;99318.16;5038400;28;20220;-84
2024/02/26 09:21:11;;;;;;;7.93;6.55;;;;;;;10.94;82.93;99317.69;5038453;28;20071;-82
2024/02/26 09:24:16;;;;;;;8.68;6.45;;;;;;;11.04;81.86;99318.41;5041657;28;20067;-81
2024/02/26 09:27:23;;;;;;;9.20;5.43;;;;;;;11.03;81.65;99322.13;5031627;28;20630;-80
2024/02/26 09:30:28;;;;;;;8.25;5.28;;;;;;;11.10;80.35;99320.47;4977775;28;20183;-80
2024/02/26 09:33:33;;;;;;;9.05;5.68;;;;;;;11.11;80.02;99314.06;4999858;28;20044;-79
2024/02/26 09:36:37;;;;;;;8.70;5.07;;;;;;;11.05;79.73;99322.78;5010945;28;20170;-81
2024/02/26 09:39:43;;;;;;;13.90;8.80;;;;;;;10.89;79.16;99318.19;5010961;28;20049;-79
2024/02/26 09:42:50;;;;;;;7.15;4.68;;;;;;;10.85;79.69;99318.69;5032738;28;20550;-81
2024/02/26 09:45:56;;;;;;;6.57;4.70;;;;;;;11.06;79.23;99317.25;5017761;28;20052;-81
2024/02/26 09:49:01;;;;;;;7.13;4.72;;;;;;;11.50;78.66;99307.13;5039518;28;20044;-81
2024/02/26 09:52:08;;;;;;;8.48;4.60;;;;;;;11.39;78.17;99304.75;5028581;28;20499;-81
2024/02/26 09:55:14;;;;;;;7.20;4.70;;;;;;;11.75;77.47;99316.91;5051224;28;20498;-81
2024/02/26 09:58:19;;;;;;;5.90;4.30;;;;;;;11.83;75.97;99308.00;5040601;28;20498;-81
2024/02/26 10:01:25;;;;;;;7.40;4.70;;;;;;;11.84;76.20;99308.84;5051771;28;20064;-81
2024/02/26 10:04:31;;;;;;;7.07;4.03;;;;;;;11.55;76.75;99306.63;5040564;28;20047;-80
2024/02/26 10:07:37;;;;;;;8.32;3.92;;;;;;;11.68;76.45;99315.03;5022010;28;20149;-79
2024/02/26 10:10:42;;;;;;;6.60;4.05;;;;;;;11.77;76.38;99314.06;5033210;28;20053;-80
2024/02/26 10:13:47;;;;;;;6.28;4.18;;;;;;;11.94;75.99;99309.50;5021926;28;20144;-79
2024/02/26 10:16:52;;;;;;;10.75;4.88;;;;;;;11.87;75.85;99305.81;5021976;28;20157;-79
2024/02/26 10:20:17;;;;;;;8.35;4.80;;;;;;;11.90;75.63;99306.31;5033179;28;20109;-80
2024/02/26 10:23:22;;;;;;;7.57;4.43;;;;;;;11.91;76.33;99318.75;5041516;28;20048;-81
2024/02/26 10:26:29;;;;;;;7.97;5.53;;;;;;;11.90;77.12;99325.13;5019741;28;20063;-82
2024/02/26 10:29:34;;;;;;;9.88;4.97;;;;;;;11.95;78.47;99316.59;5010738;28;20479;-79
2024/02/26 10:32:40;;;;;;;9.43;5.70;;;;;;;11.94;78.02;99325.66;5022104;28;20053;-81
2024/02/26 10:35:48;;;;;;;10.05;6.50;;;;;;;11.85;78.99;99319.41;5021672;28;20048;-81
2024/02/26 10:38:55;;;;;;;11.07;5.15;;;;;;;11.80;79.38;99302.94;5038243;28;20188;-79
2024/02/26 10:42:04;;;;;;;8.27;5.93;;;;;;;11.92;79.33;99308.84;5041297;28;20048;-81
2024/02/26 10:45:10;;;;;;;15.43;5.45;;;;;;;11.85;79.35;99314.03;5029787;28;20040;-82
2024/02/26 10:48:18;;;;;;;8.00;5.68;;;;;;;11.87;79.21;99325.50;5029617;28;20471;-82
2024/02/26 10:51:28;;;;;;;7.40;4.85;;;;;;;11.86;78.86;99315.72;5041246;28;20172;-81
2024/02/26 10:54:34;;;;;;;7.88;5.00;;;;;;;11.81;78.73;99328.00;5018517;28;20136;-81
2024/02/26 10:57:45;;;;;;;10.45;5.05;;;;;;;11.77;78.74;99319.44;5041130;28;20384;-81
2024/02/26 11:00:52;;;;;;;6.25;4.60;;;;;;;11.82;78.72;99319.78;5035739;28;20482;-79
2024/02/26 11:03:57;;;;;;;8.32;5.13;;;;;;;11.95;78.53;99309.34;5050549;28;20063;-80
2024/02/26 11:07:04;;;;;;;9.77;5.13;;;;;;;11.86;78.64;99312.19;5050129;28;20494;-81
2024/02/26 11:10:11;;;;;;;8.82;4.90;;;;;;;11.83;78.00;99291.88;5036430;28;20059;-82
2024/02/26 11:13:18;;;;;;;8.35;5.15;;;;;;;11.90;78.88;99283.97;5050534;28;20052;-84
2024/02/26 11:16:25;;;;;;;9.07;4.95;;;;;;;11.71;79.44;99295.91;5033231;28;20044;-82
2024/02/26 11:19:37;;;;;;;9.27;4.82;;;;;;;11.73;79.75;99285.81;5039092;28;20051;-74
2024/02/26 11:22:43;;;;;;;8.25;6.05;;;;;;;11.83;80.44;99278.41;5036110;28;20055;-80
2024/02/26 11:25:50;;;;;;;6.90;5.47;;;;;;;11.96;79.24;99276.06;5038917;28;20048;-80
2024/02/26 11:28:56;;;;;;;10.25;6.05;;;;;;;11.93;80.75;99268.34;5050249;28;20047;-79
2024/02/26 11:32:02;;;;;;;8.50;4.40;;;;;;;12.09;80.63;99272.84;5038699;28;20486;-82
2024/02/26 11:35:07;;;;;;;11.05;5.82;;;;;;;12.09;79.37;99262.94;5038981;28;20482;-82
2024/02/26 11:38:23;;;;;;;6.80;4.90;;;;;;;12.10;79.33;99253.00;5050123;28;20055;-82
2024/02/26 11:41:28;;;;;;;7.78;4.93;;;;;;;12.02;79.70;99255.72;5050004;28;20055;-81
2024/02/26 11:44:35;;;;;;;7.70;4.80;;;;;;;12.12;78.94;99243.75;5034271;28;20482;-82
2024/02/26 11:47:41;;;;;;;8.60;5.32;;;;;;;12.10;79.29;99240.41;5049899;28;20500;-81
2024/02/26 11:50:57;;;;;;;9.02;5.28;;;;;;;12.17;79.89;99237.88;5050319;28;20070;-80
2024/02/26 11:54:03;;;;;;;7.93;5.07;;;;;;;12.15;80.35;99234.50;5039942;28;20052;-82
2024/02/26 11:57:28;;;;;;;7.93;5.00;;;;;;;12.25;80.27;99230.63;5049740;28;20044;-82
2024/02/26 12:00:34;;;;;;;7.15;4.57;;;;;;;12.20;81.86;99224.91;5073524;28;20047;-82
2024/02/26 12:03:39;;;;;;;5.70;3.88;;;;;;;12.09;81.70;99233.34;5073395;28;20467;-80
2024/02/26 12:06:52;;;;;;;5.68;3.85;;;;;;;12.34;81.08;99226.88;5073670;28;20048;-81
2024/02/26 12:10:24;;;;;;;5.53;3.15;;;;;;;12.37;81.46;99207.69;5073551;28;20558;-82
2024/02/26 12:13:30;;;;;;;5.72;3.15;;;;;;;12.31;78.32;99203.03;5073567;28;20482;-82
2024/02/26 12:16:42;;;;;;;5.72;3.00;;;;;;;12.20;80.43;99195.31;5073493;28;20060;-83
2024/02/26 12:19:47;;;;;;;8.45;3.55;;;;;;;12.08;79.08;99195.84;5073411;28;20047;-82
2024/02/26 12:22:55;;;;;;;5.20;2.42;;;;;;;12.14;79.30;99187.94;5073534;28;20051;-83
2024/02/26 12:26:00;;;;;;;6.03;2.55;;;;;;;12.16;79.86;99187.78;5073435;28;20047;-82
2024/02/26 12:29:06;;;;;;;6.05;3.50;;;;;;;12.15;79.01;99186.91;5073509;28;20375;-82
2024/02/26 12:32:12;;;;;;;9.65;3.05;;;;;;;12.55;79.98;99182.38;5073355;28;20051;-81
2024/02/26 12:35:17;;;;;;;6.50;3.03;;;;;;;12.42;79.71;99182.94;5073368;28;20056;-79
2024/02/26 12:38:22;;;;;;;3.55;2.30;;;;;;;12.43;79.69;99183.78;5073766;28;20063;-79
2024/02/26 12:41:29;;;;;;;5.63;2.13;;;;;;;12.40;79.68;99169.69;5076900;28;20483;-81
2024/02/26 12:44:34;;;;;;;3.55;2.00;;;;;;;12.35;79.02;99155.91;5076989;28;20486;-79
2024/02/26 12:47:40;;;;;;;4.53;2.17;;;;;;;12.39;79.26;99159.91;5077004;28;20051;-81
2024/02/26 12:50:49;;;;;;;4.03;2.08;;;;;;;12.76;77.97;99158.41;5094699;28;20490;-80
2024/02/26 12:53:55;;;;;;;3.05;1.50;;;;;;;12.55;77.20;99156.31;5097223;28;20047;-81
2024/02/26 12:57:03;;;;;;;4.50;1.52;;;;;;;12.51;77.17;99170.31;5095260;28;20139;-80
2024/02/26 13:00:11;;;;;;;4.88;1.52;;;;;;;12.42;76.17;99176.75;5094970;28;20058;-80
2024/02/26 13:03:15;;;;;;;5.32;1.90;;;;;;;12.45;76.39;99171.00;5094961;28;20039;-80
2024/02/26 13:06:21;;;;;;;2.40;1.27;;;;;;;12.12;75.96;99181.06;5094853;28;20490;-81
2024/02/26 13:09:27;;;;;;;4.45;2.10;;;;;;;12.13;76.26;99182.72;5094858;28;20055;-82
2024/02/26 13:12:32;;;;;;;3.42;1.58;;;;;;;12.15;76.17;99186.06;5094793;28;20386;-81
2024/02/26 13:15:37;;;;;;;4.70;1.80;;;;;;;12.29;77.17;99178.13;5094677;28;20178;-82
2024/02/26 13:18:42;;;;;;;4.72;2.17;;;;;;;12.43;76.02;99179.25;5094671;28;20055;-82
2024/02/26 13:21:47;;;;;;;4.28;1.70;;;;;;;12.14;77.42;99190.63;5094579;28;20489;-82
2024/02/26 13:24:56;;;;;;;4.25;1.65;;;;;;;12.29;77.02;99180.81;5094741;28;20183;-82
2024/02/26 13:28:16;;;;;;;3.72;1.40;;;;;;;12.29;76.65;99166.53;5095880;28;20043;-81
2024/02/26 13:31:21;;;;;;;3.42;1.88;;;;;;;12.42;77.68;99165.97;5096838;28;20047;-81
2024/02/26 13:34:30;;;;;;;3.45;1.95;;;;;;;12.31;76.10;99170.75;5096149;28;20055;-81
2024/02/26 13:37:36;;;;;;;3.85;1.98;;;;;;;12.26;77.11;99178.50;5096441;28;20383;-81
2024/02/26 13:40:41;;;;;;;3.80;2.30;;;;;;;12.31;77.14;99188.72;5096265;28;20051;-82
2024/02/26 13:43:45;;;;;;;3.85;2.33;;;;;;;12.25;77.59;99182.19;5096568;28;20059;-84
2024/02/26 13:46:50;;;;;;;8.55;2.78;;;;;;;12.32;77.71;99183.16;5096288;28;20051;-81
2024/02/26 13:49:55;;;;;;;4.25;2.58;;;;;;;12.17;77.38;99167.94;5095218;28;20058;-82
2024/02/26 13:53:00;;;;;;;4.53;2.88;;;;;;;12.08;78.55;99137.53;5096406;28;20047;-82
2024/02/26 13:56:05;;;;;;;11.32;2.97;;;;;;;12.16;76.36;99160.88;5083924;28;20047;-82
2024/02/26 13:59:10;;;;;;;4.43;3.10;;;;;;;12.35;77.24;99150.53;5096285;28;20043;-81
2024/02/26 14:02:15;;;;;;;4.63;3.00;;;;;;;12.19;78.41;99145.22;5096358;28;20055;-83
2024/02/26 14:05:20;;;;;;;9.35;3.40;;;;;;;12.48;78.49;99144.59;5096015;28;20055;-82
2024/02/26 14:08:25;;;;;;;8.85;3.65;;;;;;;12.18;79.20;99127.41;5096522;28;20078;-86
2024/02/26 14:11:30;;;;;;;6.22;3.83;;;;;;;12.47;80.01;99139.38;5095662;28;20158;-80
2024/02/26 14:14:38;;;;;;;5.63;3.72;;;;;;;12.41;79.63;99143.59;5083357;28;20055;-83
2024/02/26 14:17:43;;;;;;;6.75;3.55;;;;;;;12.35;79.21;99120.94;5095664;28;20047;-84
2024/02/26 14:20:48;;;;;;;5.30;3.22;;;;;;;12.16;78.49;99132.13;5095552;28;20059;-81
2024/02/26 14:23:52;;;;;;;4.70;2.60;;;;;;;12.42;77.72;99125.63;5083121;28;20059;-80
2024/02/26 14:26:57;;;;;;;4.18;2.53;;;;;;;12.50;76.59;99117.47;5095470;28;20055;-82
2024/02/26 14:30:02;;;;;;;3.67;1.75;;;;;;;12.48;76.24;99117.66;5083084;28;20051;-85
2024/02/26 14:33:09;;;;;;;4.45;2.35;;;;;;;12.46;76.52;99118.84;5095126;28;20047;-84